createdAt,value
2018-10-05T00:01:18.242Z,8.90
2018-10-05T00:03:47.291Z,8.90
2018-10-05T00:06:15.521Z,9.00
2018-10-05T00:08:43.711Z,8.90
2018-10-05T00:11:11.894Z,8.90
2018-10-05T00:13:40.083Z,8.90
2018-10-05T00:16:08.307Z,8.80
2018-10-05T00:18:36.495Z,8.70
2018-10-05T00:21:04.687Z,8.70
2018-10-05T00:23:32.880Z,8.70
2018-10-05T00:26:01.080Z,8.70
2018-10-05T00:28:29.292Z,8.70
2018-10-05T00:30:57.536Z,8.70
2018-10-05T00:33:25.751Z,8.70
2018-10-05T00:35:53.955Z,8.70
2018-10-05T00:38:22.144Z,8.70
2018-10-05T00:40:55.215Z,8.60
2018-10-05T00:43:23.936Z,8.50
2018-10-05T00:45:52.106Z,8.40
2018-10-05T00:48:20.295Z,8.40
2018-10-05T00:50:48.508Z,8.30
2018-10-05T00:53:16.725Z,8.30
2018-10-05T00:55:44.928Z,8.40
2018-10-05T00:58:13.111Z,8.40
2018-10-05T01:00:41.295Z,8.40
2018-10-05T01:03:09.533Z,8.50
2018-10-05T01:05:37.747Z,8.50
2018-10-05T01:08:06.084Z,8.40
2018-10-05T01:10:34.275Z,8.40
2018-10-05T01:13:02.451Z,8.40
2018-10-05T01:15:30.643Z,8.30
2018-10-05T01:17:58.823Z,8.40
2018-10-05T01:20:27.007Z,8.40
2018-10-05T01:22:55.175Z,8.40
2018-10-05T01:25:23.364Z,8.40
2018-10-05T01:27:51.531Z,8.30
2018-10-05T01:30:19.719Z,8.30
2018-10-05T01:32:47.887Z,8.20
2018-10-05T01:35:16.083Z,8.30
2018-10-05T01:37:44.299Z,8.20
2018-10-05T01:40:12.556Z,8.20
2018-10-05T01:42:40.811Z,8.30
2018-10-05T01:45:09.070Z,8.30
2018-10-05T01:47:37.263Z,8.30
2018-10-05T01:50:05.458Z,8.30
2018-10-05T01:52:33.643Z,8.30
2018-10-05T01:55:01.840Z,8.40
2018-10-05T01:57:30.039Z,8.40
2018-10-05T01:59:58.236Z,8.40
2018-10-05T02:02:26.438Z,8.30
2018-10-05T02:04:54.631Z,8.10
2018-10-05T02:07:22.843Z,8.10
2018-10-05T02:09:51.035Z,7.90
2018-10-05T02:12:19.264Z,7.90
2018-10-05T02:14:47.494Z,7.80
2018-10-05T02:17:15.704Z,7.80
2018-10-05T02:19:43.902Z,7.80
2018-10-05T02:22:12.103Z,7.80
2018-10-05T02:24:40.296Z,7.80
2018-10-05T02:27:08.482Z,7.70
2018-10-05T02:29:36.671Z,7.80
2018-10-05T02:32:04.893Z,7.80
2018-10-05T02:34:33.083Z,7.90
2018-10-05T02:37:01.300Z,7.80
2018-10-05T02:39:29.507Z,7.70
2018-10-05T02:41:57.711Z,7.60
2018-10-05T02:44:25.890Z,7.60
2018-10-05T02:46:54.139Z,7.60
2018-10-05T02:49:22.377Z,7.60
2018-10-05T02:51:50.588Z,7.60
2018-10-05T02:54:18.774Z,7.60
2018-10-05T02:56:46.982Z,7.60
2018-10-05T02:59:15.164Z,7.60
2018-10-05T03:01:54.939Z,7.60
2018-10-05T03:04:23.123Z,7.70
2018-10-05T03:06:51.334Z,7.70
2018-10-05T03:09:19.554Z,7.60
2018-10-05T03:11:47.759Z,7.70
2018-10-05T03:14:15.948Z,7.70
2018-10-05T03:16:44.139Z,7.80
2018-10-05T03:19:12.518Z,7.70
2018-10-05T03:21:40.756Z,7.60
2018-10-05T03:24:08.956Z,7.40
2018-10-05T03:26:37.174Z,7.40
2018-10-05T03:29:05.415Z,7.40
2018-10-05T03:31:33.591Z,7.30
2018-10-05T03:34:01.792Z,7.30
2018-10-05T03:36:30.247Z,7.40
2018-10-05T03:38:58.438Z,7.30
2018-10-05T03:41:26.622Z,7.30
2018-10-05T03:43:54.803Z,7.40
2018-10-05T03:46:22.984Z,7.40
2018-10-05T03:48:51.162Z,7.30
2018-10-05T03:51:19.366Z,7.30
2018-10-05T03:53:47.580Z,7.30
2018-10-05T03:56:15.806Z,7.30
2018-10-05T03:58:44.034Z,7.30
2018-10-05T04:01:12.231Z,7.30
2018-10-05T04:03:40.423Z,7.20
2018-10-05T04:06:08.611Z,7.20
2018-10-05T04:08:36.835Z,7.20
2018-10-05T04:11:05.020Z,7.20
2018-10-05T04:13:33.251Z,7.10
2018-10-05T04:16:01.444Z,7.10
2018-10-05T04:18:29.656Z,7.10
2018-10-05T04:20:57.848Z,7.10
2018-10-05T04:23:26.066Z,7.10
2018-10-05T04:25:54.268Z,7.10
2018-10-05T04:28:22.487Z,7.10
2018-10-05T04:30:50.751Z,7.10
2018-10-05T04:33:18.968Z,7.10
2018-10-05T04:35:47.220Z,7.10
2018-10-05T04:38:15.367Z,7.10
2018-10-05T04:40:43.563Z,7.00
2018-10-05T04:43:11.812Z,7.00
2018-10-05T04:45:40.000Z,6.90
2018-10-05T04:48:08.195Z,6.90
2018-10-05T04:50:36.391Z,6.90
2018-10-05T04:53:04.599Z,6.90
2018-10-05T04:55:32.804Z,7.00
2018-10-05T04:58:01.011Z,6.90
2018-10-05T05:00:29.219Z,6.90
2018-10-05T05:02:57.401Z,6.80
2018-10-05T05:05:25.674Z,6.80
2018-10-05T05:07:53.889Z,6.80
2018-10-05T05:10:22.096Z,6.80
2018-10-05T05:12:50.283Z,6.80
2018-10-05T05:15:18.470Z,6.80
2018-10-05T05:17:46.662Z,6.90
2018-10-05T05:20:14.855Z,7.00
2018-10-05T05:22:43.394Z,7.10
2018-10-05T05:25:11.604Z,7.00
2018-10-05T05:27:39.784Z,7.00
2018-10-05T05:30:08.215Z,7.00
2018-10-05T05:32:36.411Z,7.00
2018-10-05T05:35:04.635Z,6.90
2018-10-05T05:37:32.815Z,6.90
2018-10-05T05:40:01.023Z,7.00
2018-10-05T05:42:29.256Z,7.00
2018-10-05T05:44:57.447Z,7.10
2018-10-05T05:47:25.637Z,7.20
2018-10-05T05:49:53.850Z,7.20
2018-10-05T05:52:22.089Z,7.20
2018-10-05T05:54:50.723Z,7.10
2018-10-05T05:57:19.645Z,7.10
2018-10-05T05:59:47.820Z,7.20
2018-10-05T06:02:16.064Z,7.30
2018-10-05T06:04:44.255Z,7.30
2018-10-05T06:07:12.444Z,7.40
2018-10-05T06:09:40.657Z,7.50
2018-10-05T06:12:08.816Z,7.60
2018-10-05T06:14:37.011Z,7.70
2018-10-05T06:17:05.225Z,7.70
2018-10-05T06:19:33.428Z,7.80
2018-10-05T06:22:01.727Z,8.00
2018-10-05T06:24:29.780Z,8.00
2018-10-05T06:26:58.061Z,8.10
2018-10-05T06:29:26.383Z,8.10
2018-10-05T06:31:54.579Z,8.10
2018-10-05T06:34:22.770Z,8.20
2018-10-05T06:36:51.407Z,8.30
2018-10-05T06:39:19.566Z,8.30
2018-10-05T06:41:47.773Z,8.40
2018-10-05T06:44:15.946Z,8.60
2018-10-05T06:46:44.135Z,8.60
2018-10-05T06:49:12.314Z,8.70
2018-10-05T06:51:40.512Z,8.80
2018-10-05T06:54:08.734Z,8.90
2018-10-05T06:56:36.946Z,9.10
2018-10-05T06:59:05.165Z,9.20
2018-10-05T07:01:33.458Z,9.30
2018-10-05T07:04:01.534Z,9.30
2018-10-05T07:06:29.733Z,9.40
2018-10-05T07:08:57.918Z,9.40
2018-10-05T07:11:26.161Z,9.50
2018-10-05T07:13:54.307Z,9.60
2018-10-05T07:16:22.518Z,9.70
2018-10-05T07:18:50.714Z,9.70
2018-10-05T07:21:18.953Z,9.70
2018-10-05T07:23:47.086Z,9.80
2018-10-05T07:26:15.282Z,9.90
2018-10-05T07:28:43.483Z,10.00
2018-10-05T07:31:11.705Z,10.10
2018-10-05T07:33:39.931Z,10.30
2018-10-05T07:36:08.159Z,10.40
2018-10-05T07:38:36.354Z,10.50
2018-10-05T07:41:04.553Z,10.80
2018-10-05T07:43:32.743Z,10.80
2018-10-05T07:46:00.944Z,10.80
2018-10-05T07:48:29.122Z,10.90
2018-10-05T07:50:57.319Z,11.00
2018-10-05T07:53:25.518Z,11.20
2018-10-05T07:55:53.702Z,11.30
2018-10-05T07:58:21.904Z,11.40
2018-10-05T08:00:50.097Z,11.40
2018-10-05T08:03:18.274Z,11.40
2018-10-05T08:05:46.483Z,11.60
2018-10-05T08:08:14.717Z,11.60
2018-10-05T08:10:42.972Z,11.80
2018-10-05T08:13:11.176Z,12.30
2018-10-05T08:15:39.387Z,12.50
2018-10-05T08:18:07.573Z,12.50
2018-10-05T08:20:35.760Z,12.40
2018-10-05T08:23:03.956Z,12.50
2018-10-05T08:25:32.139Z,12.50
2018-10-05T08:28:00.363Z,12.70
2018-10-05T08:30:28.523Z,13.00
2018-10-05T08:32:56.720Z,13.10
2018-10-05T08:35:24.902Z,13.30
2018-10-05T08:37:53.122Z,13.50
2018-10-05T08:40:21.389Z,13.60
2018-10-05T08:42:49.536Z,13.70
2018-10-05T08:45:17.788Z,13.90
2018-10-05T08:47:46.007Z,13.90
2018-10-05T08:50:14.228Z,14.00
2018-10-05T08:52:42.440Z,14.10
2018-10-05T08:55:10.635Z,14.30
2018-10-05T08:57:38.854Z,14.40
2018-10-05T09:00:07.184Z,14.60
2018-10-05T09:02:35.309Z,14.70
2018-10-05T09:05:03.526Z,14.60
2018-10-05T09:07:31.724Z,14.90
2018-10-05T09:09:59.910Z,15.10
2018-10-05T09:12:28.111Z,15.10
2018-10-05T09:14:56.324Z,15.40
2018-10-05T09:17:24.511Z,15.50
2018-10-05T09:19:52.701Z,15.50
2018-10-05T09:22:20.895Z,15.50
2018-10-05T09:24:49.099Z,15.70
2018-10-05T09:27:17.304Z,15.70
2018-10-05T09:29:45.899Z,15.90
2018-10-05T09:32:14.149Z,16.10
2018-10-05T09:34:42.379Z,16.20
2018-10-05T09:37:10.596Z,16.50
2018-10-05T09:39:39.128Z,16.60
2018-10-05T09:42:07.534Z,17.00
2018-10-05T09:44:35.759Z,17.10
2018-10-05T09:47:04.118Z,17.00
2018-10-05T09:49:32.320Z,17.20
2018-10-05T09:52:00.518Z,17.50
2018-10-05T09:54:28.724Z,17.70
2018-10-05T09:56:56.894Z,17.90
2018-10-05T09:59:25.082Z,18.00
2018-10-05T10:01:58.710Z,18.10
2018-10-05T10:04:26.914Z,18.10
2018-10-05T10:06:55.323Z,18.20
2018-10-05T10:09:23.522Z,18.40
2018-10-05T10:11:51.729Z,18.60
2018-10-05T10:14:19.961Z,18.70
2018-10-05T10:16:48.164Z,18.70
2018-10-05T10:19:16.364Z,18.90
2018-10-05T10:21:44.539Z,19.00
2018-10-05T10:24:12.723Z,19.40
2018-10-05T10:26:40.906Z,19.60
2018-10-05T10:29:09.206Z,19.80
2018-10-05T10:31:37.274Z,19.70
2018-10-05T10:34:05.459Z,19.90
2018-10-05T10:36:33.641Z,20.00
2018-10-05T10:39:01.823Z,20.00
2018-10-05T10:41:30.000Z,20.30
2018-10-05T10:43:58.168Z,20.70
2018-10-05T10:46:26.336Z,20.90
2018-10-05T10:48:54.541Z,21.20
2018-10-05T10:51:22.737Z,21.30
2018-10-05T10:53:50.959Z,21.30
2018-10-05T10:56:19.160Z,21.40
2018-10-05T10:58:47.266Z,21.40
2018-10-05T11:01:15.431Z,21.50
2018-10-05T11:03:43.599Z,21.70
2018-10-05T11:06:11.775Z,21.80
2018-10-05T11:08:39.938Z,22.00
2018-10-05T11:11:08.177Z,22.10
2018-10-05T11:13:36.291Z,22.30
2018-10-05T11:16:04.476Z,22.50
2018-10-05T11:18:32.642Z,22.30
2018-10-05T11:21:00.816Z,22.30
2018-10-05T11:23:29.303Z,22.50
2018-10-05T11:25:57.599Z,22.70
2018-10-05T11:28:25.784Z,23.10
2018-10-05T11:30:54.782Z,23.50
2018-10-05T11:33:23.010Z,23.50
2018-10-05T11:35:51.188Z,23.40
2018-10-05T11:38:19.363Z,23.30
2018-10-05T11:40:47.606Z,23.70
2018-10-05T11:43:15.732Z,24.00
2018-10-05T11:45:43.920Z,24.20
2018-10-05T11:48:12.087Z,24.60
2018-10-05T11:50:40.291Z,24.70
2018-10-05T11:53:08.454Z,24.70
2018-10-05T11:55:36.631Z,24.80
2018-10-05T11:58:04.791Z,25.20
2018-10-05T12:00:32.971Z,25.50
2018-10-05T12:03:01.152Z,25.60
2018-10-05T12:05:29.343Z,25.60
2018-10-05T12:07:57.507Z,25.70
2018-10-05T12:10:25.683Z,25.50
2018-10-05T12:12:53.888Z,25.80
2018-10-05T12:15:22.097Z,25.90
2018-10-05T12:17:50.274Z,26.30
2018-10-05T12:20:18.444Z,26.50
2018-10-05T12:22:46.602Z,26.30
2018-10-05T12:25:14.775Z,26.60
2018-10-05T12:27:42.942Z,26.70
2018-10-05T12:30:11.153Z,27.00
2018-10-05T12:32:39.279Z,27.20
2018-10-05T12:35:07.443Z,27.20
2018-10-05T12:37:35.603Z,27.30
2018-10-05T12:40:03.792Z,27.00
2018-10-05T12:42:32.287Z,27.30
2018-10-05T12:45:01.170Z,27.00
2018-10-05T12:47:29.346Z,27.10
2018-10-05T12:49:57.592Z,27.10
2018-10-05T12:52:25.828Z,27.20
2018-10-05T12:54:54.048Z,27.20
2018-10-05T12:57:22.307Z,27.50
2018-10-05T12:59:50.491Z,27.70
2018-10-05T13:02:18.694Z,27.90
2018-10-05T13:04:46.928Z,28.00
2018-10-05T13:07:15.130Z,28.10
2018-10-05T13:09:43.319Z,28.20
2018-10-05T13:12:11.511Z,28.20
2018-10-05T13:14:39.700Z,27.70
2018-10-05T13:17:07.902Z,27.80
2018-10-05T13:19:36.083Z,28.10
2018-10-05T13:22:04.300Z,27.90
2018-10-05T13:24:32.524Z,28.00
2018-10-05T13:27:00.683Z,28.10
2018-10-05T13:29:28.879Z,28.10
2018-10-05T13:31:57.074Z,28.10
2018-10-05T13:34:25.268Z,28.20
2018-10-05T13:36:53.496Z,28.10
2018-10-05T13:39:21.729Z,28.30
2018-10-05T13:41:50.082Z,28.30
2018-10-05T13:44:18.167Z,28.20
2018-10-05T13:46:46.421Z,28.20
2018-10-05T13:49:14.603Z,28.20
2018-10-05T13:51:42.803Z,28.30
2018-10-05T13:54:11.258Z,28.40
2018-10-05T13:56:39.463Z,28.20
2018-10-05T13:59:07.787Z,28.10
2018-10-05T14:01:36.469Z,28.00
2018-10-05T14:04:05.181Z,28.00
2018-10-05T14:06:33.395Z,28.00
2018-10-05T14:09:01.901Z,28.00
2018-10-05T14:11:30.096Z,28.00
2018-10-05T14:13:58.282Z,28.00
2018-10-05T14:16:26.476Z,28.00
2018-10-05T14:18:54.654Z,27.80
2018-10-05T14:21:22.863Z,27.80
2018-10-05T14:23:51.081Z,27.80
2018-10-05T14:26:19.277Z,27.70
2018-10-05T14:28:47.463Z,27.70
2018-10-05T14:31:15.651Z,27.90
2018-10-05T14:33:43.846Z,27.90
2018-10-05T14:36:12.024Z,27.70
2018-10-05T14:38:40.223Z,27.60
2018-10-05T14:41:08.406Z,27.60
2018-10-05T14:43:36.575Z,27.70
2018-10-05T14:46:04.804Z,27.70
2018-10-05T14:48:33.016Z,27.70
2018-10-05T14:51:01.188Z,27.70
2018-10-05T14:53:30.172Z,27.60
2018-10-05T14:55:58.567Z,27.30
2018-10-05T14:58:27.003Z,27.20
2018-10-05T15:00:55.232Z,27.10
2018-10-05T15:03:23.452Z,26.70
2018-10-05T15:05:51.639Z,26.50
2018-10-05T15:08:19.819Z,26.30
2018-10-05T15:10:47.983Z,26.10
2018-10-05T15:13:16.227Z,25.90
2018-10-05T15:15:44.327Z,25.60
2018-10-05T15:18:12.507Z,25.40
2018-10-05T15:20:40.684Z,25.10
2018-10-05T15:23:08.891Z,25.00
2018-10-05T15:25:37.061Z,24.90
2018-10-05T15:28:05.239Z,24.70
2018-10-05T15:30:33.411Z,24.60
2018-10-05T15:33:01.628Z,24.40
2018-10-05T15:35:29.799Z,24.30
2018-10-05T15:37:57.974Z,24.30
2018-10-05T15:40:26.176Z,24.10
2018-10-05T15:42:54.404Z,24.00
2018-10-05T15:45:22.579Z,23.90
2018-10-05T15:47:50.763Z,23.70
2018-10-05T15:50:18.927Z,23.40
2018-10-05T15:52:47.137Z,23.30
2018-10-05T15:55:15.266Z,23.10
2018-10-05T15:57:43.435Z,23.00
2018-10-05T16:00:11.611Z,22.80
2018-10-05T16:02:39.782Z,22.60
2018-10-05T16:05:07.967Z,22.40
2018-10-05T16:07:36.156Z,22.20
2018-10-05T16:10:04.343Z,22.00
2018-10-05T16:12:32.527Z,21.80
2018-10-05T16:15:00.694Z,21.70
2018-10-05T16:17:28.866Z,21.50
2018-10-05T16:19:57.088Z,21.20
2018-10-05T16:22:25.461Z,21.10
2018-10-05T16:24:53.714Z,20.90
2018-10-05T16:27:21.907Z,20.70
2018-10-05T16:29:50.088Z,20.60
2018-10-05T16:32:18.247Z,20.50
2018-10-05T16:34:46.419Z,20.40
2018-10-05T16:37:14.631Z,20.20
2018-10-05T16:39:42.767Z,20.10
2018-10-05T16:42:10.943Z,19.90
2018-10-05T16:44:39.149Z,19.80
2018-10-05T16:47:07.321Z,19.70
2018-10-05T16:49:35.500Z,19.50
2018-10-05T16:52:03.729Z,19.30
2018-10-05T16:54:32.819Z,19.20
2018-10-05T16:57:01.283Z,19.00
2018-10-05T16:59:29.866Z,18.90
2018-10-05T17:01:58.126Z,18.70
2018-10-05T17:04:26.340Z,18.60
2018-10-05T17:06:54.625Z,18.50
2018-10-05T17:09:22.812Z,18.40
2018-10-05T17:11:51.384Z,18.30
2018-10-05T17:14:19.571Z,18.20
2018-10-05T17:16:47.756Z,18.00
2018-10-05T17:19:15.955Z,17.90
2018-10-05T17:21:44.135Z,17.80
2018-10-05T17:24:12.312Z,17.60
2018-10-05T17:26:47.213Z,17.50
2018-10-05T17:29:17.118Z,17.30
2018-10-05T17:31:45.487Z,17.20
2018-10-05T17:34:13.882Z,17.10
2018-10-05T17:36:42.340Z,16.90
2018-10-05T17:39:11.715Z,16.90
2018-10-05T17:41:40.833Z,16.90
2018-10-05T17:44:10.839Z,16.80
2018-10-05T17:46:39.419Z,16.70
2018-10-05T17:49:07.928Z,16.60
2018-10-05T17:51:37.197Z,16.50
2018-10-05T17:54:05.710Z,16.40
2018-10-05T17:56:34.807Z,16.40
2018-10-05T17:59:03.482Z,16.40
2018-10-05T18:01:31.968Z,16.40
2018-10-05T18:04:00.374Z,16.30
2018-10-05T18:06:28.829Z,16.30
2018-10-05T18:08:57.950Z,16.20
2018-10-05T18:11:27.833Z,16.10
2018-10-05T18:13:56.988Z,16.00
2018-10-05T18:16:25.526Z,16.00
2018-10-05T18:18:54.012Z,15.90
2018-10-05T18:21:22.816Z,15.80
2018-10-05T18:23:51.319Z,15.70
2018-10-05T18:26:19.720Z,15.60
2018-10-05T18:28:48.296Z,15.60
2018-10-05T18:31:16.625Z,15.50
2018-10-05T18:33:45.250Z,15.40
2018-10-05T18:36:14.089Z,15.30
2018-10-05T18:38:42.444Z,15.30
2018-10-05T18:41:10.848Z,15.20
2018-10-05T18:43:39.749Z,15.20
2018-10-05T18:46:08.616Z,15.10
2018-10-05T18:48:37.060Z,15.00
2018-10-05T18:51:05.680Z,15.00
2018-10-05T18:53:36.059Z,14.90
2018-10-05T18:56:15.875Z,14.90
2018-10-05T18:58:44.702Z,14.80
2018-10-05T19:01:13.945Z,14.70
2018-10-05T19:03:42.535Z,14.80
2018-10-05T19:06:11.674Z,14.70
2018-10-05T19:08:40.261Z,14.70
2018-10-05T19:11:09.025Z,14.60
2018-10-05T19:13:37.810Z,14.50
2018-10-05T19:16:06.758Z,14.50
2018-10-05T19:18:35.166Z,14.50
2018-10-05T19:21:05.330Z,14.40
2018-10-05T19:23:34.500Z,14.40
2018-10-05T19:26:03.067Z,14.30
2018-10-05T19:28:31.365Z,14.30
2018-10-05T19:31:01.575Z,14.30
2018-10-05T19:33:29.971Z,14.10
2018-10-05T19:35:58.327Z,14.20
2018-10-05T19:38:26.761Z,14.00
2018-10-05T19:40:55.253Z,14.00
2018-10-05T19:43:23.639Z,13.90
2018-10-05T19:45:51.918Z,13.90
2018-10-05T19:48:20.356Z,13.90
2018-10-05T19:50:48.657Z,13.90
2018-10-05T19:53:17.109Z,13.80
2018-10-05T19:55:45.234Z,13.70
2018-10-05T19:58:13.596Z,13.70
2018-10-05T20:00:41.879Z,13.70
2018-10-05T20:03:10.692Z,13.70
2018-10-05T20:05:39.007Z,13.60
2018-10-05T20:08:07.261Z,13.60
2018-10-05T20:10:35.450Z,13.60
2018-10-05T20:13:03.819Z,13.60
2018-10-05T20:15:32.060Z,13.50
2018-10-05T20:18:00.482Z,13.40
2018-10-05T20:20:28.475Z,13.40
2018-10-05T20:22:56.703Z,13.30
2018-10-05T20:25:24.916Z,13.20
2018-10-05T20:27:53.119Z,13.20
2018-10-05T20:30:21.327Z,13.30
2018-10-05T20:32:49.535Z,13.30
2018-10-05T20:35:17.735Z,13.20
2018-10-05T20:37:46.110Z,13.20
2018-10-05T20:40:14.197Z,13.00
2018-10-05T20:42:42.478Z,13.00
2018-10-05T20:45:10.691Z,13.00
2018-10-05T20:47:42.332Z,13.00
2018-10-05T20:50:11.036Z,13.00
2018-10-05T20:52:39.647Z,12.90
2018-10-05T20:55:08.654Z,12.90
2018-10-05T20:57:36.859Z,12.90
2018-10-05T21:00:05.744Z,12.80
2018-10-05T21:02:34.420Z,12.80
2018-10-05T21:05:02.949Z,12.80
2018-10-05T21:07:31.558Z,12.80
2018-10-05T21:10:00.404Z,12.70
2018-10-05T21:12:28.695Z,12.70
2018-10-05T21:14:56.946Z,12.70
2018-10-05T21:17:26.698Z,12.70
2018-10-05T21:19:55.036Z,12.60
2018-10-05T21:22:23.477Z,12.70
2018-10-05T21:24:51.804Z,12.60
2018-10-05T21:27:20.066Z,12.60
2018-10-05T21:29:48.319Z,12.50
2018-10-05T21:32:16.685Z,12.60
2018-10-05T21:34:45.038Z,12.50
2018-10-05T21:37:13.251Z,12.40
2018-10-05T21:39:41.489Z,12.40
2018-10-05T21:42:09.687Z,12.30
2018-10-05T21:44:38.089Z,12.40
2018-10-05T21:47:06.542Z,12.30
2018-10-05T21:49:34.796Z,12.20
2018-10-05T21:52:03.061Z,12.20
2018-10-05T21:54:31.315Z,12.20
2018-10-05T21:56:59.650Z,12.20
2018-10-05T21:59:27.935Z,12.10
2018-10-05T22:01:56.122Z,12.00
2018-10-05T22:04:24.355Z,12.10
2018-10-05T22:06:52.651Z,12.10
2018-10-05T22:09:21.068Z,12.00
2018-10-05T22:11:49.263Z,12.10
2018-10-05T22:14:17.579Z,12.00
2018-10-05T22:16:45.849Z,12.00
2018-10-05T22:19:14.039Z,12.00
2018-10-05T22:21:42.231Z,11.90
2018-10-05T22:24:10.419Z,11.90
2018-10-05T22:26:38.687Z,12.00
2018-10-05T22:29:06.887Z,12.00
2018-10-05T22:31:35.080Z,12.00
2018-10-05T22:34:03.276Z,11.90
2018-10-05T22:36:31.451Z,11.90
2018-10-05T22:38:59.647Z,11.80
2018-10-05T22:41:27.822Z,11.80
2018-10-05T22:43:56.958Z,11.70
2018-10-05T22:46:25.131Z,11.70
2018-10-05T22:48:53.332Z,11.70
2018-10-05T22:51:21.510Z,11.70
2018-10-05T22:53:49.675Z,11.70
2018-10-05T22:56:17.850Z,11.60
2018-10-05T22:58:46.172Z,11.60
2018-10-05T23:01:14.413Z,11.60
2018-10-05T23:03:42.620Z,11.50
2018-10-05T23:06:10.829Z,11.60
2018-10-05T23:08:39.024Z,11.50
2018-10-05T23:11:07.330Z,11.60
2018-10-05T23:13:35.503Z,11.60
2018-10-05T23:16:03.734Z,11.60
2018-10-05T23:18:31.920Z,11.50
2018-10-05T23:21:00.136Z,11.40
2018-10-05T23:23:28.317Z,11.40
2018-10-05T23:25:56.495Z,11.30
2018-10-05T23:28:24.661Z,11.40
2018-10-05T23:30:52.839Z,11.40
2018-10-05T23:33:21.007Z,11.50
2018-10-05T23:35:49.499Z,11.40
2018-10-05T23:38:17.671Z,11.40
2018-10-05T23:40:45.874Z,11.40
2018-10-05T23:43:14.051Z,11.40
2018-10-05T23:45:42.247Z,11.30
2018-10-05T23:48:10.427Z,11.30
2018-10-05T23:50:38.607Z,11.20
2018-10-05T23:53:06.786Z,11.20
2018-10-05T23:55:34.978Z,11.30
2018-10-05T23:58:03.162Z,11.30
